Time;durP1;ratioP1;P1;durP2;ratioP2;P2;SDS_P1;SDS_P2;PMS_P1;PMS_P2;Temp;Humidity;BMP_temperature;BMP_pressure;BME280_temperature;BME280_humidity;BME280_pressure;Samples;Min_cycle;Max_cycle;Signal;HPM_P1;HPM_P2
2023/07/21 00:08:40;;;;;;;5.30;2.47;;;;;;;24.97;41.27;99973.47;41638083;28;20500;-83
2023/07/21 00:28:41;;;;;;;5.13;2.35;;;;;;;25.03;41.16;99977.31;41615364;28;20642;-86
2023/07/21 00:48:41;;;;;;;5.80;2.80;;;;;;;24.87;41.50;99972.75;41607831;28;20093;-87
2023/07/21 01:08:43;;;;;;;5.07;2.65;;;;;;;24.53;42.26;99966.28;41613376;28;20045;-86
2023/07/21 01:28:45;;;;;;;4.45;2.70;;;;;;;24.58;42.33;99952.59;41633772;28;20072;-86
2023/07/21 01:48:47;;;;;;;6.10;2.78;;;;;;;24.51;41.60;99967.41;41634921;28;20555;-87
2023/07/21 02:08:47;;;;;;;5.30;3.00;;;;;;;24.85;40.47;99978.19;41625196;28;20121;-85
2023/07/21 02:28:48;;;;;;;3.92;2.47;;;;;;;24.51;40.82;99976.22;41600510;28;20144;-85
2023/07/21 02:48:48;;;;;;;4.15;2.50;;;;;;;24.33;41.04;99973.53;41611919;28;20065;-86
2023/07/21 03:08:49;;;;;;;4.10;2.15;;;;;;;24.19;41.67;99997.84;41614883;28;20374;-85
2023/07/21 03:28:51;;;;;;;4.03;2.67;;;;;;;24.12;41.86;100014.31;41613842;28;20069;-85
2023/07/21 03:48:51;;;;;;;3.55;2.05;;;;;;;24.51;41.20;99999.19;41628886;28;20048;-86
2023/07/21 04:08:53;;;;;;;4.82;2.13;;;;;;;24.76;41.43;99992.34;41635589;28;20409;-86
2023/07/21 04:28:54;;;;;;;3.17;2.33;;;;;;;24.45;42.60;99996.16;41489457;28;21041;-86
2023/07/21 04:48:55;;;;;;;6.97;2.50;;;;;;;24.60;43.91;99993.81;41489512;28;20042;-86
2023/07/21 05:08:56;;;;;;;6.88;2.60;;;;;;;24.42;45.16;100011.50;41563541;28;20080;-84
2023/07/21 05:28:57;;;;;;;3.67;2.80;;;;;;;23.96;46.13;100020.25;41489745;28;20049;-80
2023/07/21 05:48:59;;;;;;;4.95;2.47;;;;;;;23.96;45.73;100000.88;41473134;28;20389;-82
2023/07/21 06:08:59;;;;;;;4.20;2.45;;;;;;;24.03;44.97;100015.19;41471804;28;20037;-81
2023/07/21 06:28:59;;;;;;;4.90;2.60;;;;;;;23.93;46.90;100009.94;41593429;28;20997;-81
2023/07/21 06:49:00;;;;;;;9.65;2.67;;;;;;;24.27;46.01;100041.09;41618602;28;20409;-81
2023/07/21 07:09:00;;;;;;;3.25;2.40;;;;;;;24.49;45.33;100036.38;41634401;28;20046;-80
2023/07/21 07:29:03;;;;;;;5.63;3.50;;;;;;;24.69;45.49;100012.47;41647158;28;20048;-81
2023/07/21 07:49:04;;;;;;;5.88;2.45;;;;;;;24.73;45.44;99985.53;41653539;28;20464;-81
2023/07/21 08:09:05;;;;;;;8.30;3.35;;;;;;;24.85;46.37;100001.19;41658248;28;20057;-81
2023/07/21 08:29:08;;;;;;;3.85;3.20;;;;;;;25.03;46.27;99991.38;41661497;28;20038;-82
2023/07/21 08:49:08;;;;;;;7.00;3.00;;;;;;;25.36;45.43;99975.72;41683313;28;20089;-80
2023/07/21 09:09:17;;;;;;;8.40;2.83;;;;;;;25.37;45.74;99964.16;41653339;28;20061;-81
2023/07/21 09:29:18;;;;;;;6.38;3.08;;;;;;;25.73;44.99;99948.09;41625270;28;20041;-82
2023/07/21 09:49:19;;;;;;;6.53;3.10;;;;;;;25.81;44.96;99968.50;41616655;28;20405;-82
2023/07/21 10:09:20;;;;;;;5.43;3.13;;;;;;;26.07;44.18;99953.56;41603959;28;20057;-81
2023/07/21 10:29:21;;;;;;;5.63;2.95;;;;;;;26.26;43.72;99916.09;41625988;28;20077;-84
2023/07/21 10:49:22;;;;;;;4.65;2.50;;;;;;;26.32;41.63;99911.97;41630642;28;20042;-83
2023/07/21 11:09:24;;;;;;;8.55;2.80;;;;;;;26.40;41.61;99901.34;41738064;28;20060;-79
2023/07/21 11:29:31;;;;;;;3.78;2.50;;;;;;;26.50;42.32;99871.97;41701720;28;20104;-80
2023/07/21 11:49:37;;;;;;;6.30;2.80;;;;;;;26.41;42.16;99908.31;41738915;28;20156;-81
2023/07/21 12:09:38;;;;;;;9.00;2.80;;;;;;;26.49;46.30;99900.38;41807100;28;20135;-81
2023/07/21 12:29:38;;;;;;;11.00;3.60;;;;;;;26.95;47.02;99885.72;41819083;28;20132;-81
2023/07/21 12:49:39;;;;;;;5.95;2.95;;;;;;;27.26;44.49;99871.72;41814613;28;20501;-83
2023/07/21 13:09:39;;;;;;;5.65;2.95;;;;;;;27.40;43.11;99878.13;41811711;28;20044;-83
2023/07/21 13:29:42;;;;;;;5.78;2.47;;;;;;;27.41;41.69;99879.81;41807296;28;20071;-82
2023/07/21 13:49:42;;;;;;;;;;;;;;;27.47;38.99;99839.25;41611848;28;20045;-82
2023/07/21 14:09:43;;;;;;;3.05;2.17;;;;;;;27.42;39.90;99825.66;41619437;28;19968;-81
2023/07/21 14:29:44;;;;;;;3.03;2.15;;;;;;;27.42;39.56;99793.75;41632888;28;20045;-80
2023/07/21 14:49:45;;;;;;;2.05;1.92;;;;;;;27.43;38.35;99780.28;41638495;28;20045;-82
2023/07/21 15:09:46;;;;;;;2.05;1.70;;;;;;;27.40;37.41;99751.34;41636410;28;20428;-81
2023/07/21 15:29:47;;;;;;;33.25;4.47;;;;;;;27.44;38.04;99693.34;41626693;28;20045;-83
2023/07/21 15:49:48;;;;;;;4.95;1.90;;;;;;;27.20;37.35;99635.88;41654069;28;20045;-80
2023/07/21 16:09:51;;;;;;;1.92;1.73;;;;;;;26.97;37.15;99616.22;41654900;28;20053;-79
2023/07/21 16:29:52;;;;;;;3.42;1.88;;;;;;;26.97;37.63;99615.41;41648932;28;20042;-82
2023/07/21 16:49:53;;;;;;;1.83;1.50;;;;;;;26.97;38.64;99554.31;41635224;28;20124;-81
2023/07/21 17:09:54;;;;;;;2.63;1.67;;;;;;;26.99;38.86;99544.34;41630703;28;20076;-81
2023/07/21 17:29:55;;;;;;;2.90;1.50;;;;;;;26.98;39.46;99631.16;41638193;28;20038;-82
2023/07/21 17:49:56;;;;;;;3.00;1.75;;;;;;;26.99;39.70;99603.59;41633845;28;20049;-82
2023/07/21 18:09:57;;;;;;;2.15;1.60;;;;;;;26.97;40.33;99910.31;41611600;28;20042;-82
2023/07/21 18:29:58;;;;;;;2.50;1.48;;;;;;;26.94;40.39;99866.31;41634032;28;20049;-83
2023/07/21 18:49:59;;;;;;;4.22;2.10;;;;;;;26.90;41.32;99801.22;41611180;28;20057;-82
2023/07/21 19:10:04;;;;;;;4.47;1.80;;;;;;;26.92;42.96;99803.72;41628079;28;20517;-80
2023/07/21 19:30:07;;;;;;;2.55;1.80;;;;;;;26.93;43.83;99763.72;41660352;28;20057;-82
2023/07/21 19:50:08;;;;;;;5.95;2.10;;;;;;;26.95;44.94;99716.53;41640837;28;20053;-84
2023/07/21 20:10:09;;;;;;;5.32;2.38;;;;;;;26.96;44.54;99742.09;41656807;28;20077;-83
2023/07/21 20:30:10;;;;;;;5.03;1.95;;;;;;;26.96;44.46;99752.72;41647570;28;20057;-84
2023/07/21 20:50:11;;;;;;;2.97;2.20;;;;;;;26.73;49.16;99796.94;41615316;28;20524;-84
2023/07/21 21:10:12;;;;;;;3.88;2.55;;;;;;;26.64;49.06;99823.50;41633231;28;20513;-83
2023/07/21 21:30:14;;;;;;;5.53;2.90;;;;;;;24.73;54.04;99853.16;41626246;28;20099;-89
2023/07/21 21:50:14;;;;;;;4.38;3.35;;;;;;;24.42;54.53;99873.88;41634690;28;20402;-82
2023/07/21 22:10:21;;;;;;;3.67;2.83;;;;;;;23.90;55.99;99891.22;41629950;28;20065;-82
2023/07/21 22:30:21;;;;;;;3.47;3.03;;;;;;;23.35;56.99;99905.25;41620664;28;20037;-83
2023/07/21 22:50:22;;;;;;;4.75;3.55;;;;;;;23.16;58.16;99900.88;41612834;28;20477;-83
2023/07/21 23:10:23;;;;;;;6.78;3.03;;;;;;;22.96;59.17;99903.56;41622750;28;20049;-83
2023/07/21 23:30:24;;;;;;;5.95;3.47;;;;;;;22.71;59.57;99900.50;41632100;28;20508;-83
2023/07/21 23:50:24;;;;;;;3.83;3.42;;;;;;;22.58;59.41;99904.44;41632874;28;20040;-82
